createdAt,value
2023-05-04T00:02:11.506Z,84.96
2023-05-04T00:04:39.275Z,84.85
2023-05-04T00:07:07.059Z,85.15
2023-05-04T00:09:36.549Z,85.13
2023-05-04T00:12:04.680Z,85.36
2023-05-04T00:14:32.280Z,85.62
2023-05-04T00:17:00.029Z,85.71
2023-05-04T00:19:27.765Z,85.77
2023-05-04T00:21:55.378Z,85.62
2023-05-04T00:24:23.131Z,86.01
2023-05-04T00:26:52.096Z,85.63
2023-05-04T00:29:20.189Z,85.60
2023-05-04T00:31:48.013Z,85.64
2023-05-04T00:34:16.149Z,86.02
2023-05-04T00:36:43.768Z,85.85
2023-05-04T00:39:11.735Z,85.78
2023-05-04T00:41:39.435Z,85.91
2023-05-04T00:44:08.673Z,85.52
2023-05-04T00:46:38.301Z,85.37
2023-05-04T00:49:07.668Z,85.51
2023-05-04T00:51:36.676Z,85.55
2023-05-04T00:54:05.134Z,85.68
2023-05-04T00:56:34.086Z,85.63
2023-05-04T00:59:01.935Z,85.86
2023-05-04T01:01:31.309Z,85.89
2023-05-04T01:03:59.325Z,85.97
2023-05-04T01:06:36.161Z,85.40
2023-05-04T01:09:12.141Z,86.07
2023-05-04T01:11:45.118Z,86.05
2023-05-04T01:14:15.509Z,86.07
2023-05-04T01:16:44.507Z,86.18
2023-05-04T01:19:12.334Z,86.26
2023-05-04T01:21:41.604Z,86.08
2023-05-04T01:24:09.439Z,85.87
2023-05-04T01:26:41.785Z,85.90
2023-05-04T01:29:14.526Z,85.90
2023-05-04T01:31:44.547Z,85.88
2023-05-04T01:34:12.988Z,85.86
2023-05-04T01:36:43.313Z,85.93
2023-05-04T01:39:11.195Z,86.28
2023-05-04T01:41:38.803Z,85.68
2023-05-04T01:44:07.076Z,86.14
2023-05-04T01:46:34.861Z,85.95
2023-05-04T01:49:02.848Z,86.07
2023-05-04T01:51:30.464Z,86.41
2023-05-04T01:53:59.559Z,86.35
2023-05-04T01:56:27.179Z,86.69
2023-05-04T01:58:55.198Z,86.67
2023-05-04T02:01:22.822Z,86.75
2023-05-04T02:03:50.806Z,86.62
2023-05-04T02:06:18.520Z,86.63
2023-05-04T02:08:47.848Z,86.77
2023-05-04T02:11:16.926Z,86.92
2023-05-04T02:13:46.512Z,86.72
2023-05-04T02:16:14.282Z,86.90
2023-05-04T02:18:42.172Z,86.86
2023-05-04T02:21:09.967Z,87.19
2023-05-04T02:23:37.589Z,87.50
2023-05-04T02:26:05.232Z,87.55
2023-05-04T02:28:34.456Z,87.52
2023-05-04T02:31:02.808Z,87.10
2023-05-04T02:33:31.133Z,87.03
2023-05-04T02:35:58.731Z,87.24
2023-05-04T02:38:27.576Z,87.04
2023-05-04T02:40:55.329Z,86.86
2023-05-04T02:43:22.962Z,86.37
2023-05-04T02:45:52.428Z,86.58
2023-05-04T02:48:21.200Z,86.31
2023-05-04T02:50:49.112Z,86.49
2023-05-04T02:53:16.874Z,86.84
2023-05-04T02:55:45.192Z,86.86
2023-05-04T02:58:12.898Z,86.57
2023-05-04T03:00:40.722Z,86.67
2023-05-04T03:03:09.749Z,86.93
2023-05-04T03:05:37.895Z,86.54
2023-05-04T03:08:05.955Z,86.40
2023-05-04T03:10:33.880Z,86.60
2023-05-04T03:13:05.942Z,86.30
2023-05-04T03:15:33.900Z,86.32
2023-05-04T03:18:02.400Z,86.59
2023-05-04T03:20:33.089Z,86.94
2023-05-04T03:23:02.285Z,87.03
2023-05-04T03:25:31.596Z,87.41
2023-05-04T03:27:59.975Z,86.90
2023-05-04T03:30:27.767Z,86.72
2023-05-04T03:32:58.277Z,86.70
2023-05-04T03:35:26.159Z,86.73
2023-05-04T03:37:57.635Z,86.55
2023-05-04T03:40:25.790Z,86.81
2023-05-04T03:42:55.105Z,86.70
2023-05-04T03:45:28.448Z,86.78
2023-05-04T03:47:56.250Z,86.74
2023-05-04T03:50:24.493Z,86.61
2023-05-04T03:52:52.143Z,86.71
2023-05-04T03:55:24.451Z,86.91
2023-05-04T03:57:52.539Z,87.12
2023-05-04T04:00:20.899Z,87.03
2023-05-04T04:02:57.444Z,87.07
2023-05-04T04:05:25.389Z,87.12
2023-05-04T04:07:54.453Z,87.14
2023-05-04T04:10:22.315Z,87.20
2023-05-04T04:12:51.386Z,87.03
2023-05-04T04:15:19.204Z,87.29
2023-05-04T04:17:47.074Z,87.67
2023-05-04T04:20:15.243Z,87.48
2023-05-04T04:22:42.926Z,87.32
2023-05-04T04:25:10.692Z,87.27
2023-05-04T04:27:38.562Z,86.98
2023-05-04T04:30:09.121Z,87.65
2023-05-04T04:32:37.447Z,86.43
2023-05-04T04:35:06.809Z,86.20
2023-05-04T04:37:34.438Z,86.22
2023-05-04T04:40:03.270Z,86.72
2023-05-04T04:42:31.027Z,86.38
2023-05-04T04:44:58.630Z,86.43
2023-05-04T04:47:27.801Z,86.32
2023-05-04T04:49:55.592Z,86.37
2023-05-04T04:52:23.742Z,86.55
2023-05-04T04:54:51.804Z,87.19
2023-05-04T04:57:19.525Z,87.15
2023-05-04T04:59:47.296Z,87.17
2023-05-04T05:02:15.267Z,86.87
2023-05-04T05:04:44.248Z,87.12
2023-05-04T05:07:11.927Z,87.20
2023-05-04T05:09:39.903Z,87.29
2023-05-04T05:12:07.794Z,87.56
2023-05-04T05:14:35.750Z,87.42
2023-05-04T05:17:04.905Z,87.12
2023-05-04T05:19:36.902Z,87.54
2023-05-04T05:22:05.968Z,87.21
2023-05-04T05:24:33.828Z,87.42
2023-05-04T05:27:01.779Z,87.41
2023-05-04T05:29:29.592Z,86.87
2023-05-04T05:31:57.231Z,87.10
2023-05-04T05:34:25.015Z,86.85
2023-05-04T05:36:52.615Z,86.67
2023-05-04T05:39:21.590Z,86.51
2023-05-04T05:41:49.230Z,86.07
2023-05-04T05:44:16.971Z,85.77
2023-05-04T05:46:44.926Z,85.67
2023-05-04T05:49:12.597Z,85.48
2023-05-04T05:51:40.217Z,85.18
2023-05-04T05:54:07.928Z,85.43
2023-05-04T05:56:36.885Z,84.89
2023-05-04T05:59:04.578Z,84.49
2023-05-04T06:01:32.424Z,84.17
2023-05-04T06:04:00.395Z,84.50
2023-05-04T06:06:28.210Z,84.40
2023-05-04T06:08:55.813Z,84.52
2023-05-04T06:11:23.416Z,84.37
2023-05-04T06:13:52.490Z,84.16
2023-05-04T06:16:20.319Z,83.90
2023-05-04T06:18:47.998Z,83.78
2023-05-04T06:21:15.845Z,83.40
2023-05-04T06:23:43.551Z,82.29
2023-05-04T06:26:11.401Z,81.81
2023-05-04T06:28:38.997Z,81.32
2023-05-04T06:31:08.546Z,80.81
2023-05-04T06:33:36.275Z,80.70
2023-05-04T06:36:04.035Z,80.66
2023-05-04T06:38:31.625Z,80.47
2023-05-04T06:40:59.433Z,80.40
2023-05-04T06:43:27.080Z,80.41
2023-05-04T06:45:54.752Z,80.02
2023-05-04T06:48:23.732Z,79.69
2023-05-04T06:50:51.369Z,79.67
2023-05-04T06:53:18.965Z,79.04
2023-05-04T06:55:46.732Z,79.59
2023-05-04T06:58:14.387Z,78.57
2023-05-04T07:00:43.559Z,78.13
2023-05-04T07:03:11.460Z,77.94
2023-05-04T07:05:40.558Z,78.31
2023-05-04T07:08:09.684Z,77.37
2023-05-04T07:10:37.591Z,77.49
2023-05-04T07:13:05.828Z,77.18
2023-05-04T07:15:34.507Z,76.84
2023-05-04T07:18:02.409Z,77.42
2023-05-04T07:20:30.115Z,76.27
2023-05-04T07:22:59.232Z,76.43
2023-05-04T07:25:27.560Z,76.14
2023-05-04T07:27:55.480Z,75.92
2023-05-04T07:30:23.492Z,76.21
2023-05-04T07:32:51.884Z,75.06
2023-05-04T07:35:19.932Z,74.55
2023-05-04T07:37:47.858Z,74.38
2023-05-04T07:40:16.937Z,74.71
2023-05-04T07:42:44.668Z,74.36
2023-05-04T07:45:12.279Z,73.67
2023-05-04T07:47:39.924Z,72.76
2023-05-04T07:50:08.839Z,71.60
2023-05-04T07:52:36.593Z,71.68
2023-05-04T07:55:04.537Z,71.79
2023-05-04T07:57:35.815Z,71.23
2023-05-04T08:00:04.842Z,71.31
2023-05-04T08:02:41.202Z,70.88
2023-05-04T08:05:09.640Z,70.01
2023-05-04T08:07:37.248Z,70.70
2023-05-04T08:10:05.876Z,69.38
2023-05-04T08:12:35.142Z,68.81
2023-05-04T08:15:03.639Z,69.97
2023-05-04T08:17:31.812Z,67.40
2023-05-04T08:19:59.470Z,64.88
2023-05-04T08:22:27.083Z,66.15
2023-05-04T08:24:54.798Z,64.65
2023-05-04T08:27:22.858Z,63.34
2023-05-04T08:29:52.179Z,63.62
2023-05-04T08:32:19.788Z,62.70
2023-05-04T08:34:47.374Z,62.08
2023-05-04T08:37:16.010Z,62.98
2023-05-04T08:39:43.803Z,62.78
2023-05-04T08:42:12.064Z,60.04
2023-05-04T08:44:40.334Z,60.90
2023-05-04T08:47:10.883Z,61.42
2023-05-04T08:49:38.928Z,59.41
2023-05-04T08:52:09.234Z,59.36
2023-05-04T08:54:39.666Z,59.37
2023-05-04T08:57:07.403Z,59.51
2023-05-04T08:59:36.353Z,58.61
2023-05-04T09:02:05.131Z,59.60
2023-05-04T09:04:34.205Z,57.62
2023-05-04T09:07:02.161Z,55.60
2023-05-04T09:09:31.337Z,55.93
2023-05-04T09:11:59.729Z,54.24
2023-05-04T09:14:34.673Z,52.91
2023-05-04T09:17:03.198Z,53.91
2023-05-04T09:19:34.595Z,57.54
2023-05-04T09:22:14.622Z,56.03
2023-05-04T09:24:42.320Z,55.17
2023-05-04T09:27:11.141Z,55.11
2023-05-04T09:29:39.760Z,52.20
2023-05-04T09:32:16.205Z,52.66
2023-05-04T09:34:51.608Z,52.19
2023-05-04T09:37:22.105Z,52.22
2023-05-04T09:39:57.353Z,53.46
2023-05-04T09:42:26.751Z,53.29
2023-05-04T09:45:03.344Z,52.93
2023-05-04T09:47:35.728Z,51.34
2023-05-04T09:50:20.273Z,51.22
2023-05-04T09:52:51.260Z,52.47
2023-05-04T09:55:20.272Z,51.55
2023-05-04T09:57:50.423Z,52.18
2023-05-04T10:00:19.448Z,51.28
2023-05-04T10:02:48.453Z,51.06
2023-05-04T10:05:18.374Z,51.88
2023-05-04T10:07:46.623Z,48.53
2023-05-04T10:10:16.512Z,47.85
2023-05-04T10:12:45.598Z,47.09
2023-05-04T10:15:13.926Z,50.13
2023-05-04T10:17:56.367Z,49.10
2023-05-04T10:20:39.768Z,49.00
2023-05-04T10:23:27.138Z,49.18
2023-05-04T10:26:15.482Z,48.68
2023-05-04T10:28:53.609Z,49.76
2023-05-04T10:31:22.299Z,48.26
2023-05-04T10:33:50.090Z,49.71
2023-05-04T10:36:18.380Z,47.19
2023-05-04T10:38:46.385Z,47.01
2023-05-04T10:41:16.353Z,47.51
2023-05-04T10:43:48.622Z,45.85
2023-05-04T10:46:21.384Z,47.71
2023-05-04T10:48:49.250Z,46.43
2023-05-04T10:51:20.851Z,47.88
2023-05-04T10:53:48.739Z,48.03
2023-05-04T10:56:24.675Z,46.42
2023-05-04T10:58:52.923Z,44.83
2023-05-04T11:01:21.703Z,45.51
2023-05-04T11:03:50.575Z,46.31
2023-05-04T11:06:23.348Z,45.72
2023-05-04T11:09:01.348Z,45.11
2023-05-04T11:11:33.134Z,46.77
2023-05-04T11:14:01.489Z,45.26
2023-05-04T11:16:29.319Z,45.69
2023-05-04T11:19:08.423Z,46.44
2023-05-04T11:21:36.552Z,46.07
2023-05-04T11:24:04.549Z,45.01
2023-05-04T11:26:33.674Z,45.42
2023-05-04T11:29:01.296Z,45.08
2023-05-04T11:31:29.091Z,45.54
2023-05-04T11:33:56.928Z,44.31
2023-05-04T11:36:25.391Z,45.08
2023-05-04T11:38:57.607Z,45.84
2023-05-04T11:41:27.121Z,45.22
2023-05-04T11:43:56.566Z,43.86
2023-05-04T11:46:24.654Z,45.81
2023-05-04T11:48:52.323Z,45.61
2023-05-04T11:51:24.375Z,43.44
2023-05-04T11:53:52.556Z,45.63
2023-05-04T11:56:20.333Z,43.85
2023-05-04T11:58:48.081Z,45.06
2023-05-04T12:01:17.823Z,44.33
2023-05-04T12:03:53.954Z,44.69
2023-05-04T12:06:32.136Z,46.74
2023-05-04T12:09:02.830Z,44.34
2023-05-04T12:11:30.449Z,45.07
2023-05-04T12:14:06.173Z,43.47
2023-05-04T12:16:35.231Z,44.76
2023-05-04T12:19:04.961Z,45.54
2023-05-04T12:21:33.276Z,46.05
2023-05-04T12:24:01.423Z,43.39
2023-05-04T12:26:29.775Z,43.92
2023-05-04T12:28:57.856Z,43.21
2023-05-04T12:31:25.861Z,45.53
2023-05-04T12:33:55.040Z,44.26
2023-05-04T12:36:22.880Z,44.66
2023-05-04T12:38:50.485Z,44.06
2023-05-04T12:41:18.091Z,44.17
2023-05-04T12:43:45.710Z,44.60
2023-05-04T12:46:13.888Z,43.01
2023-05-04T12:48:41.493Z,43.30
2023-05-04T12:51:10.744Z,42.74
2023-05-04T12:53:38.419Z,41.94
2023-05-04T12:56:06.885Z,41.99
2023-05-04T12:58:34.688Z,44.00
2023-05-04T13:01:02.502Z,44.11
2023-05-04T13:03:30.212Z,43.04
2023-05-04T13:05:58.718Z,43.04
2023-05-04T13:08:27.680Z,44.09
2023-05-04T13:10:55.466Z,42.51
2023-05-04T13:13:28.301Z,43.58
2023-05-04T13:15:56.615Z,43.30
2023-05-04T13:18:27.224Z,43.83
2023-05-04T13:20:55.185Z,43.26
2023-05-04T13:23:23.306Z,43.89
2023-05-04T13:25:53.003Z,43.49
2023-05-04T13:28:20.758Z,43.61
2023-05-04T13:30:48.502Z,42.51
2023-05-04T13:33:27.954Z,42.98
2023-05-04T13:35:57.607Z,44.23
2023-05-04T13:38:25.598Z,43.77
2023-05-04T13:40:54.638Z,44.23
2023-05-04T13:43:22.561Z,46.01
2023-05-04T13:45:50.217Z,44.63
2023-05-04T13:48:18.158Z,43.29
2023-05-04T13:50:45.912Z,42.27
2023-05-04T13:53:13.804Z,43.93
2023-05-04T13:55:41.501Z,43.53
2023-05-04T13:58:10.585Z,43.09
2023-05-04T14:00:38.297Z,42.50
2023-05-04T14:03:06.196Z,42.79
2023-05-04T14:05:35.546Z,42.96
2023-05-04T14:08:03.369Z,41.59
2023-05-04T14:10:31.024Z,42.58
2023-05-04T14:12:58.961Z,42.81
2023-05-04T14:15:28.895Z,42.47
2023-05-04T14:17:56.591Z,42.31
2023-05-04T14:20:24.534Z,41.59
2023-05-04T14:22:52.144Z,41.78
2023-05-04T14:25:21.374Z,40.34
2023-05-04T14:27:49.026Z,40.73
2023-05-04T14:30:17.450Z,39.82
2023-05-04T14:32:46.506Z,41.15
2023-05-04T14:35:15.680Z,41.00
2023-05-04T14:37:43.324Z,40.39
2023-05-04T14:40:11.583Z,39.58
2023-05-04T14:42:39.602Z,40.20
2023-05-04T14:45:08.590Z,41.68
2023-05-04T14:47:36.699Z,41.25
2023-05-04T14:50:07.513Z,40.13
2023-05-04T14:52:35.685Z,41.28
2023-05-04T14:55:04.311Z,41.68
2023-05-04T14:57:31.942Z,41.14
2023-05-04T14:59:59.837Z,39.24
2023-05-04T15:02:27.749Z,40.82
2023-05-04T15:04:55.422Z,40.50
2023-05-04T15:07:24.634Z,39.33
2023-05-04T15:09:52.294Z,40.86
2023-05-04T15:12:20.049Z,41.68
2023-05-04T15:14:47.679Z,41.50
2023-05-04T15:17:17.211Z,40.36
2023-05-04T15:19:45.830Z,40.01
2023-05-04T15:22:13.578Z,39.10
2023-05-04T15:24:42.590Z,38.50
2023-05-04T15:27:10.511Z,39.57
2023-05-04T15:29:38.338Z,39.80
2023-05-04T15:32:06.794Z,38.58
2023-05-04T15:34:34.412Z,39.51
2023-05-04T15:37:02.035Z,38.44
2023-05-04T15:39:30.783Z,38.71
2023-05-04T15:41:59.768Z,39.93
2023-05-04T15:44:28.074Z,38.85
2023-05-04T15:46:56.239Z,38.51
2023-05-04T15:49:24.010Z,38.45
2023-05-04T15:51:53.342Z,38.19
2023-05-04T15:54:21.547Z,38.54
2023-05-04T15:56:49.790Z,39.01
2023-05-04T15:59:19.036Z,40.46
2023-05-04T16:01:47.082Z,39.92
2023-05-04T16:04:15.169Z,39.70
2023-05-04T16:06:42.816Z,39.62
2023-05-04T16:09:10.745Z,38.94
2023-05-04T16:11:38.357Z,38.84
2023-05-04T16:14:06.132Z,38.55
2023-05-04T16:16:35.183Z,39.39
2023-05-04T16:19:02.810Z,39.44
2023-05-04T16:21:30.537Z,40.25
2023-05-04T16:23:58.225Z,40.24
2023-05-04T16:26:26.041Z,39.59
2023-05-04T16:28:53.941Z,41.16
2023-05-04T16:31:21.712Z,41.35
2023-05-04T16:33:50.826Z,43.02
2023-05-04T16:36:18.691Z,42.66
2023-05-04T16:38:48.500Z,42.04
2023-05-04T16:41:17.268Z,43.08
2023-05-04T16:43:44.885Z,43.71
2023-05-04T16:46:12.661Z,43.96
2023-05-04T16:48:40.332Z,44.38
2023-05-04T16:51:09.494Z,44.43
2023-05-04T16:53:37.255Z,44.17
2023-05-04T16:56:05.224Z,44.80
2023-05-04T16:58:33.028Z,44.01
2023-05-04T17:01:00.722Z,45.36
2023-05-04T17:03:28.645Z,45.17
2023-05-04T17:05:56.252Z,45.95
2023-05-04T17:08:25.761Z,46.53
2023-05-04T17:10:53.363Z,46.63
2023-05-04T17:13:21.289Z,47.77
2023-05-04T17:15:49.091Z,48.12
2023-05-04T17:18:16.954Z,49.55
2023-05-04T17:20:44.566Z,49.94
2023-05-04T17:23:12.444Z,51.01
2023-05-04T17:25:41.677Z,51.39
2023-05-04T17:28:09.563Z,51.29
2023-05-04T17:30:38.057Z,51.99
2023-05-04T17:33:05.863Z,52.50
2023-05-04T17:35:33.518Z,52.65
2023-05-04T17:38:01.448Z,53.13
2023-05-04T17:40:29.438Z,53.53
2023-05-04T17:42:58.601Z,53.83
2023-05-04T17:45:26.377Z,54.62
2023-05-04T17:47:54.121Z,54.75
2023-05-04T17:50:22.153Z,54.36
2023-05-04T17:52:52.728Z,54.71
2023-05-04T17:55:20.697Z,54.63
2023-05-04T17:57:48.291Z,54.57
2023-05-04T18:00:18.039Z,54.73
2023-05-04T18:02:45.750Z,54.50
2023-05-04T18:05:13.837Z,54.45
2023-05-04T18:07:41.476Z,54.25
2023-05-04T18:10:09.932Z,54.34
2023-05-04T18:12:38.526Z,54.19
2023-05-04T18:15:08.181Z,53.70
2023-05-04T18:17:37.986Z,54.14
2023-05-04T18:20:08.885Z,54.65
2023-05-04T18:22:37.253Z,54.59
2023-05-04T18:25:05.405Z,55.18
2023-05-04T18:27:33.500Z,55.63
2023-05-04T18:30:01.249Z,55.86
2023-05-04T18:32:29.011Z,56.43
2023-05-04T18:34:58.617Z,56.81
2023-05-04T18:37:26.662Z,57.59
2023-05-04T18:39:54.432Z,57.37
2023-05-04T18:42:22.189Z,57.41
2023-05-04T18:44:51.607Z,57.81
2023-05-04T18:47:19.503Z,58.30
2023-05-04T18:49:50.976Z,58.58
2023-05-04T18:52:19.983Z,59.06
2023-05-04T18:54:47.615Z,59.54
2023-05-04T18:57:15.262Z,59.85
2023-05-04T18:59:42.878Z,60.57
2023-05-04T19:02:11.020Z,60.99
2023-05-04T19:04:38.654Z,60.63
2023-05-04T19:07:06.551Z,60.44
2023-05-04T19:09:35.896Z,60.79
2023-05-04T19:12:04.896Z,60.68
2023-05-04T19:14:32.888Z,60.79
2023-05-04T19:17:02.232Z,60.83
2023-05-04T19:19:30.176Z,60.86
2023-05-04T19:21:58.498Z,60.63
2023-05-04T19:24:26.303Z,60.83
2023-05-04T19:26:55.911Z,60.70
2023-05-04T19:29:25.634Z,60.92
2023-05-04T19:31:56.114Z,60.96
2023-05-04T19:34:23.882Z,61.56
2023-05-04T19:36:52.751Z,61.87
2023-05-04T19:39:20.995Z,62.21
2023-05-04T19:41:48.859Z,62.59
2023-05-04T19:44:17.903Z,62.65
2023-05-04T19:46:47.216Z,62.67
2023-05-04T19:49:16.110Z,63.27
2023-05-04T19:51:46.183Z,63.51
2023-05-04T19:54:18.965Z,64.17
2023-05-04T19:56:46.765Z,64.56
2023-05-04T19:59:14.400Z,64.77
2023-05-04T20:01:43.702Z,65.01
2023-05-04T20:04:12.241Z,65.25
2023-05-04T20:06:40.081Z,65.09
2023-05-04T20:09:07.731Z,65.42
2023-05-04T20:11:36.250Z,65.42
2023-05-04T20:14:03.879Z,66.42
2023-05-04T20:16:31.783Z,67.28
2023-05-04T20:19:03.595Z,68.01
2023-05-04T20:21:32.143Z,68.40
2023-05-04T20:23:59.802Z,68.79
2023-05-04T20:26:27.537Z,68.93
2023-05-04T20:28:55.129Z,68.90
2023-05-04T20:31:22.994Z,68.71
2023-05-04T20:33:50.682Z,68.50
2023-05-04T20:36:19.670Z,68.70
2023-05-04T20:38:47.303Z,68.77
2023-05-04T20:41:15.088Z,68.72
2023-05-04T20:43:42.797Z,68.28
2023-05-04T20:46:10.744Z,68.11
2023-05-04T20:48:38.838Z,68.24
2023-05-04T20:53:42.267Z,68.53
2023-05-04T20:56:10.669Z,68.60
2023-05-04T20:58:38.674Z,69.45
2023-05-04T21:01:06.810Z,70.22
2023-05-04T21:03:34.810Z,70.40
2023-05-04T21:06:02.882Z,70.34
2023-05-04T21:08:30.600Z,70.33
2023-05-04T21:10:59.596Z,70.24
2023-05-04T21:13:27.251Z,70.27
2023-05-04T21:15:55.231Z,70.48
2023-05-04T21:18:22.845Z,70.61
2023-05-04T21:20:50.491Z,70.70
2023-05-04T21:23:18.543Z,70.59
2023-05-04T21:25:46.148Z,70.92
2023-05-04T21:28:15.234Z,71.08
2023-05-04T21:30:43.425Z,70.88
2023-05-04T21:33:11.128Z,71.00
2023-05-04T21:35:38.733Z,71.87
2023-05-04T21:38:06.765Z,72.36
2023-05-04T21:40:34.508Z,72.29
2023-05-04T21:43:02.430Z,72.26
2023-05-04T21:45:32.974Z,72.33
2023-05-04T21:48:02.316Z,72.34
2023-05-04T21:50:31.027Z,72.42
2023-05-04T21:52:58.632Z,72.60
2023-05-04T21:55:26.397Z,72.93
2023-05-04T21:57:54.069Z,73.11
2023-05-04T22:00:22.245Z,73.83
2023-05-04T22:02:51.533Z,74.16
2023-05-04T22:05:22.255Z,73.97
2023-05-04T22:07:50.150Z,73.58
2023-05-04T22:10:18.191Z,73.26
2023-05-04T22:12:45.833Z,73.05
2023-05-04T22:15:14.279Z,73.03
2023-05-04T22:17:41.977Z,73.09
2023-05-04T22:20:12.537Z,73.21
2023-05-04T22:22:40.131Z,73.56
2023-05-04T22:25:08.399Z,73.50
2023-05-04T22:27:36.042Z,74.08
2023-05-04T22:30:03.968Z,74.31
2023-05-04T22:32:31.808Z,76.25
2023-05-04T22:34:59.530Z,75.40
2023-05-04T22:37:28.522Z,76.60
2023-05-04T22:39:56.209Z,76.77
2023-05-04T22:42:23.940Z,76.61
2023-05-04T22:44:51.564Z,77.32
2023-05-04T22:47:19.175Z,76.14
2023-05-04T22:49:46.998Z,76.37
2023-05-04T22:52:14.778Z,77.36
2023-05-04T22:54:43.814Z,77.87
2023-05-04T22:57:11.597Z,77.85
2023-05-04T22:59:39.222Z,77.88
2023-05-04T23:02:07.261Z,77.88
2023-05-04T23:04:34.992Z,77.92
2023-05-04T23:07:02.775Z,77.63
2023-05-04T23:09:30.591Z,77.54
2023-05-04T23:12:00.046Z,78.01
2023-05-04T23:14:27.653Z,77.97
2023-05-04T23:16:55.382Z,78.00
2023-05-04T23:19:23.005Z,78.74
2023-05-04T23:21:50.747Z,78.82
2023-05-04T23:24:18.378Z,79.84
2023-05-04T23:26:46.111Z,80.37
2023-05-04T23:29:15.149Z,80.77
2023-05-04T23:31:43.216Z,80.73
2023-05-04T23:34:11.047Z,80.54
2023-05-04T23:36:38.663Z,81.19
2023-05-04T23:39:06.422Z,80.96
2023-05-04T23:41:34.124Z,81.19
2023-05-04T23:44:02.054Z,80.91
2023-05-04T23:46:31.022Z,80.74
2023-05-04T23:48:58.822Z,80.62
2023-05-04T23:51:28.408Z,80.14
2023-05-04T23:53:56.456Z,80.48
2023-05-04T23:56:24.084Z,81.00
2023-05-04T23:58:51.844Z,80.78
